sensor_id;sensor_type;location;lat;lon;timestamp;pressure;altitude;pressure_sealevel;temperature
4421;BMP180;11824;51.178;13.546;2023-03-16T00:02:11;100766.00;;;-1.20
4421;BMP180;11824;51.178;13.546;2023-03-16T00:04:39;100759.00;;;-1.20
4421;BMP180;11824;51.178;13.546;2023-03-16T00:07:08;100760.00;;;-1.30
4421;BMP180;11824;51.178;13.546;2023-03-16T00:09:36;100754.00;;;-1.30
4421;BMP180;11824;51.178;13.546;2023-03-16T00:12:09;100755.00;;;-1.30
4421;BMP180;11824;51.178;13.546;2023-03-16T00:14:41;100762.00;;;-1.30
4421;BMP180;11824;51.178;13.546;2023-03-16T00:17:11;100765.00;;;-1.40
4421;BMP180;11824;51.178;13.546;2023-03-16T00:19:45;100766.00;;;-1.40
4421;BMP180;11824;51.178;13.546;2023-03-16T00:22:13;100764.00;;;-1.40
4421;BMP180;11824;51.178;13.546;2023-03-16T00:24:42;100775.00;;;-1.40
4421;BMP180;11824;51.178;13.546;2023-03-16T00:27:10;100763.00;;;-1.40
4421;BMP180;11824;51.178;13.546;2023-03-16T00:29:41;100770.00;;;-1.50
4421;BMP180;11824;51.178;13.546;2023-03-16T00:32:15;100768.00;;;-1.50
4421;BMP180;11824;51.178;13.546;2023-03-16T00:34:43;100767.00;;;-1.50
4421;BMP180;11824;51.178;13.546;2023-03-16T00:37:11;100783.00;;;-1.50
4421;BMP180;11824;51.178;13.546;2023-03-16T00:39:40;100755.00;;;-1.50
4421;BMP180;11824;51.178;13.546;2023-03-16T00:42:07;100764.00;;;-1.50
4421;BMP180;11824;51.178;13.546;2023-03-16T00:44:35;100782.00;;;-1.50
4421;BMP180;11824;51.178;13.546;2023-03-16T00:47:03;100785.00;;;-1.50
4421;BMP180;11824;51.178;13.546;2023-03-16T00:49:31;100780.00;;;-1.50
4421;BMP180;11824;51.178;13.546;2023-03-16T00:52:00;100783.00;;;-1.50
4421;BMP180;11824;51.178;13.546;2023-03-16T00:54:28;100781.00;;;-1.50
4421;BMP180;11824;51.178;13.546;2023-03-16T00:56:55;100781.00;;;-1.60
4421;BMP180;11824;51.178;13.546;2023-03-16T00:59:22;100786.00;;;-1.60
4421;BMP180;11824;51.178;13.546;2023-03-16T01:01:51;100790.00;;;-1.60
4421;BMP180;11824;51.178;13.546;2023-03-16T01:04:19;100785.00;;;-1.60
4421;BMP180;11824;51.178;13.546;2023-03-16T01:06:48;100790.00;;;-1.70
4421;BMP180;11824;51.178;13.546;2023-03-16T01:09:15;100795.00;;;-1.70
4421;BMP180;11824;51.178;13.546;2023-03-16T01:11:43;100802.00;;;-1.70
4421;BMP180;11824;51.178;13.546;2023-03-16T01:14:11;100802.00;;;-1.70
4421;BMP180;11824;51.178;13.546;2023-03-16T01:16:38;100803.00;;;-1.60
4421;BMP180;11824;51.178;13.546;2023-03-16T01:19:06;100809.00;;;-1.50
4421;BMP180;11824;51.178;13.546;2023-03-16T01:21:33;100808.00;;;-1.50
4421;BMP180;11824;51.178;13.546;2023-03-16T01:24:06;100809.00;;;-1.50
4421;BMP180;11824;51.178;13.546;2023-03-16T01:26:33;100811.00;;;-1.50
4421;BMP180;11824;51.178;13.546;2023-03-16T01:29:01;100810.00;;;-1.60
4421;BMP180;11824;51.178;13.546;2023-03-16T01:31:28;100814.00;;;-1.60
4421;BMP180;11824;51.178;13.546;2023-03-16T01:33:55;100812.00;;;-1.60
4421;BMP180;11824;51.178;13.546;2023-03-16T01:36:23;100805.00;;;-1.60
4421;BMP180;11824;51.178;13.546;2023-03-16T01:38:50;100806.00;;;-1.70
4421;BMP180;11824;51.178;13.546;2023-03-16T01:41:18;100814.00;;;-1.70
4421;BMP180;11824;51.178;13.546;2023-03-16T01:43:45;100799.00;;;-1.70
4421;BMP180;11824;51.178;13.546;2023-03-16T01:46:20;100805.00;;;-1.70
4421;BMP180;11824;51.178;13.546;2023-03-16T01:49:03;100809.00;;;-1.70
4421;BMP180;11824;51.178;13.546;2023-03-16T01:51:36;100812.00;;;-1.70
4421;BMP180;11824;51.178;13.546;2023-03-16T01:54:07;100807.00;;;-1.80
4421;BMP180;11824;51.178;13.546;2023-03-16T01:56:41;100801.00;;;-1.80
4421;BMP180;11824;51.178;13.546;2023-03-16T01:59:13;100805.00;;;-1.80
4421;BMP180;11824;51.178;13.546;2023-03-16T02:01:42;100807.00;;;-1.80
4421;BMP180;11824;51.178;13.546;2023-03-16T02:04:24;100810.00;;;-1.80
4421;BMP180;11824;51.178;13.546;2023-03-16T02:06:54;100801.00;;;-1.80
4421;BMP180;11824;51.178;13.546;2023-03-16T02:09:23;100797.00;;;-1.80
4421;BMP180;11824;51.178;13.546;2023-03-16T02:11:53;100794.00;;;-1.80
4421;BMP180;11824;51.178;13.546;2023-03-16T02:14:21;100799.00;;;-1.80
4421;BMP180;11824;51.178;13.546;2023-03-16T02:16:51;100797.00;;;-1.90
4421;BMP180;11824;51.178;13.546;2023-03-16T02:19:25;100799.00;;;-1.90
4421;BMP180;11824;51.178;13.546;2023-03-16T02:21:59;100797.00;;;-1.90
4421;BMP180;11824;51.178;13.546;2023-03-16T02:24:28;100797.00;;;-1.90
4421;BMP180;11824;51.178;13.546;2023-03-16T02:26:58;100800.00;;;-2.00
4421;BMP180;11824;51.178;13.546;2023-03-16T02:32:25;100799.00;;;-2.00
4421;BMP180;11824;51.178;13.546;2023-03-16T02:34:54;100803.00;;;-2.00
4421;BMP180;11824;51.178;13.546;2023-03-16T02:37:21;100807.00;;;-2.00
4421;BMP180;11824;51.178;13.546;2023-03-16T02:39:49;100801.00;;;-2.00
4421;BMP180;11824;51.178;13.546;2023-03-16T02:42:18;100810.00;;;-2.10
4421;BMP180;11824;51.178;13.546;2023-03-16T02:44:51;100808.00;;;-2.10
4421;BMP180;11824;51.178;13.546;2023-03-16T02:47:27;100808.00;;;-2.10
4421;BMP180;11824;51.178;13.546;2023-03-16T02:49:55;100823.00;;;-2.10
4421;BMP180;11824;51.178;13.546;2023-03-16T02:52:23;100816.00;;;-2.10
4421;BMP180;11824;51.178;13.546;2023-03-16T02:54:50;100818.00;;;-2.10
4421;BMP180;11824;51.178;13.546;2023-03-16T02:57:17;100808.00;;;-2.10
4421;BMP180;11824;51.178;13.546;2023-03-16T02:59:45;100807.00;;;-2.20
4421;BMP180;11824;51.178;13.546;2023-03-16T03:02:12;100808.00;;;-2.20
4421;BMP180;11824;51.178;13.546;2023-03-16T03:04:40;100808.00;;;-2.20
4421;BMP180;11824;51.178;13.546;2023-03-16T03:07:07;100803.00;;;-2.20
4421;BMP180;11824;51.178;13.546;2023-03-16T03:09:35;100803.00;;;-2.10
4421;BMP180;11824;51.178;13.546;2023-03-16T03:12:02;100804.00;;;-2.10
4421;BMP180;11824;51.178;13.546;2023-03-16T03:14:30;100801.00;;;-2.10
4421;BMP180;11824;51.178;13.546;2023-03-16T03:16:57;100812.00;;;-2.20
4421;BMP180;11824;51.178;13.546;2023-03-16T03:19:25;100809.00;;;-2.20
4421;BMP180;11824;51.178;13.546;2023-03-16T03:21:53;100815.00;;;-2.20
4421;BMP180;11824;51.178;13.546;2023-03-16T03:24:23;100809.00;;;-2.20
4421;BMP180;11824;51.178;13.546;2023-03-16T03:26:50;100809.00;;;-2.20
4421;BMP180;11824;51.178;13.546;2023-03-16T03:29:18;100809.00;;;-2.20
4421;BMP180;11824;51.178;13.546;2023-03-16T03:31:45;100816.00;;;-2.20
4421;BMP180;11824;51.178;13.546;2023-03-16T03:34:13;100813.00;;;-2.20
4421;BMP180;11824;51.178;13.546;2023-03-16T03:36:40;100819.00;;;-2.20
4421;BMP180;11824;51.178;13.546;2023-03-16T03:39:08;100809.00;;;-2.20
4421;BMP180;11824;51.178;13.546;2023-03-16T03:41:35;100823.00;;;-2.30
4421;BMP180;11824;51.178;13.546;2023-03-16T03:44:04;100826.00;;;-2.30
4421;BMP180;11824;51.178;13.546;2023-03-16T03:46:31;100836.00;;;-2.30
4421;BMP180;11824;51.178;13.546;2023-03-16T03:48:58;100835.00;;;-2.30
4421;BMP180;11824;51.178;13.546;2023-03-16T03:51:29;100826.00;;;-2.30
4421;BMP180;11824;51.178;13.546;2023-03-16T03:53:57;100834.00;;;-2.30
4421;BMP180;11824;51.178;13.546;2023-03-16T03:56:25;100832.00;;;-2.30
4421;BMP180;11824;51.178;13.546;2023-03-16T03:58:52;100820.00;;;-2.30
4421;BMP180;11824;51.178;13.546;2023-03-16T04:01:20;100828.00;;;-2.30
4421;BMP180;11824;51.178;13.546;2023-03-16T04:03:47;100827.00;;;-2.30
4421;BMP180;11824;51.178;13.546;2023-03-16T04:06:15;100839.00;;;-2.30
4421;BMP180;11824;51.178;13.546;2023-03-16T04:08:42;100828.00;;;-2.40
4421;BMP180;11824;51.178;13.546;2023-03-16T04:11:09;100825.00;;;-2.40
4421;BMP180;11824;51.178;13.546;2023-03-16T04:13:38;100835.00;;;-2.40
4421;BMP180;11824;51.178;13.546;2023-03-16T04:16:06;100839.00;;;-2.40
4421;BMP180;11824;51.178;13.546;2023-03-16T04:18:33;100831.00;;;-2.40
4421;BMP180;11824;51.178;13.546;2023-03-16T04:21:05;100831.00;;;-2.40
4421;BMP180;11824;51.178;13.546;2023-03-16T04:23:33;100828.00;;;-2.40
4421;BMP180;11824;51.178;13.546;2023-03-16T04:26:01;100837.00;;;-2.40
4421;BMP180;11824;51.178;13.546;2023-03-16T04:28:29;100833.00;;;-2.40
4421;BMP180;11824;51.178;13.546;2023-03-16T04:31:01;100827.00;;;-2.40
4421;BMP180;11824;51.178;13.546;2023-03-16T04:33:31;100837.00;;;-2.40
4421;BMP180;11824;51.178;13.546;2023-03-16T04:35:59;100826.00;;;-2.40
4421;BMP180;11824;51.178;13.546;2023-03-16T04:38:28;100823.00;;;-2.40
4421;BMP180;11824;51.178;13.546;2023-03-16T04:40:55;100823.00;;;-2.40
4421;BMP180;11824;51.178;13.546;2023-03-16T04:43:22;100825.00;;;-2.40
4421;BMP180;11824;51.178;13.546;2023-03-16T04:45:50;100825.00;;;-2.40
4421;BMP180;11824;51.178;13.546;2023-03-16T04:48:18;100826.00;;;-2.40
4421;BMP180;11824;51.178;13.546;2023-03-16T04:50:48;100825.00;;;-2.40
4421;BMP180;11824;51.178;13.546;2023-03-16T04:53:16;100829.00;;;-2.40
4421;BMP180;11824;51.178;13.546;2023-03-16T04:55:44;100831.00;;;-2.40
4421;BMP180;11824;51.178;13.546;2023-03-16T04:58:11;100825.00;;;-2.50
4421;BMP180;11824;51.178;13.546;2023-03-16T05:00:39;100828.00;;;-2.50
4421;BMP180;11824;51.178;13.546;2023-03-16T05:03:07;100819.00;;;-2.50
4421;BMP180;11824;51.178;13.546;2023-03-16T05:05:36;100825.00;;;-2.50
4421;BMP180;11824;51.178;13.546;2023-03-16T05:08:05;100838.00;;;-2.50
4421;BMP180;11824;51.178;13.546;2023-03-16T05:10:33;100833.00;;;-2.50
4421;BMP180;11824;51.178;13.546;2023-03-16T05:13:00;100828.00;;;-2.40
4421;BMP180;11824;51.178;13.546;2023-03-16T05:15:28;100820.00;;;-2.40
4421;BMP180;11824;51.178;13.546;2023-03-16T05:17:55;100822.00;;;-2.40
4421;BMP180;11824;51.178;13.546;2023-03-16T05:20:23;100826.00;;;-2.40
4421;BMP180;11824;51.178;13.546;2023-03-16T05:22:51;100834.00;;;-2.40
4421;BMP180;11824;51.178;13.546;2023-03-16T05:25:19;100844.00;;;-2.40
4421;BMP180;11824;51.178;13.546;2023-03-16T05:27:49;100833.00;;;-2.40
4421;BMP180;11824;51.178;13.546;2023-03-16T05:30:17;100834.00;;;-2.40
4421;BMP180;11824;51.178;13.546;2023-03-16T05:32:45;100838.00;;;-2.40
4421;BMP180;11824;51.178;13.546;2023-03-16T05:35:13;100844.00;;;-2.30
4421;BMP180;11824;51.178;13.546;2023-03-16T05:37:41;100839.00;;;-2.30
4421;BMP180;11824;51.178;13.546;2023-03-16T05:40:12;100844.00;;;-2.30
4421;BMP180;11824;51.178;13.546;2023-03-16T05:42:43;100847.00;;;-2.20
4421;BMP180;11824;51.178;13.546;2023-03-16T05:45:12;100838.00;;;-2.10
4421;BMP180;11824;51.178;13.546;2023-03-16T05:47:40;100858.00;;;-1.90
4421;BMP180;11824;51.178;13.546;2023-03-16T05:50:10;100849.00;;;-1.60
4421;BMP180;11824;51.178;13.546;2023-03-16T05:52:38;100848.00;;;-1.30
4421;BMP180;11824;51.178;13.546;2023-03-16T05:55:07;100857.00;;;-1.00
4421;BMP180;11824;51.178;13.546;2023-03-16T05:57:36;100851.00;;;-0.80
4421;BMP180;11824;51.178;13.546;2023-03-16T06:00:05;100859.00;;;-0.50
4421;BMP180;11824;51.178;13.546;2023-03-16T06:02:38;100860.00;;;-0.30
4421;BMP180;11824;51.178;13.546;2023-03-16T06:05:06;100859.00;;;-0.10
4421;BMP180;11824;51.178;13.546;2023-03-16T06:07:34;100870.00;;;0.00
4421;BMP180;11824;51.178;13.546;2023-03-16T06:10:01;100869.00;;;0.20
4421;BMP180;11824;51.178;13.546;2023-03-16T06:12:29;100871.00;;;0.30
4421;BMP180;11824;51.178;13.546;2023-03-16T06:14:57;100873.00;;;0.40
4421;BMP180;11824;51.178;13.546;2023-03-16T06:17:24;100878.00;;;0.50
4421;BMP180;11824;51.178;13.546;2023-03-16T06:19:52;100874.00;;;0.60
4421;BMP180;11824;51.178;13.546;2023-03-16T06:22:19;100882.00;;;0.70
4421;BMP180;11824;51.178;13.546;2023-03-16T06:24:46;100889.00;;;0.70
4421;BMP180;11824;51.178;13.546;2023-03-16T06:27:14;100877.00;;;0.70
4421;BMP180;11824;51.178;13.546;2023-03-16T06:29:41;100876.00;;;0.70
4421;BMP180;11824;51.178;13.546;2023-03-16T06:32:09;100871.00;;;0.60
4421;BMP180;11824;51.178;13.546;2023-03-16T06:34:37;100880.00;;;0.60
4421;BMP180;11824;51.178;13.546;2023-03-16T06:37:05;100886.00;;;0.50
4421;BMP180;11824;51.178;13.546;2023-03-16T06:39:32;100882.00;;;0.50
4421;BMP180;11824;51.178;13.546;2023-03-16T06:41:59;100887.00;;;0.40
4421;BMP180;11824;51.178;13.546;2023-03-16T06:44:26;100879.00;;;0.40
4421;BMP180;11824;51.178;13.546;2023-03-16T06:46:54;100889.00;;;0.40
4421;BMP180;11824;51.178;13.546;2023-03-16T06:49:22;100884.00;;;0.40
4421;BMP180;11824;51.178;13.546;2023-03-16T06:51:49;100880.00;;;0.40
4421;BMP180;11824;51.178;13.546;2023-03-16T06:54:17;100883.00;;;0.40
4421;BMP180;11824;51.178;13.546;2023-03-16T06:56:44;100886.00;;;0.50
4421;BMP180;11824;51.178;13.546;2023-03-16T06:59:12;100889.00;;;0.50
4421;BMP180;11824;51.178;13.546;2023-03-16T07:01:40;100886.00;;;0.50
4421;BMP180;11824;51.178;13.546;2023-03-16T07:04:07;100887.00;;;0.60
4421;BMP180;11824;51.178;13.546;2023-03-16T07:06:36;100883.00;;;0.60
4421;BMP180;11824;51.178;13.546;2023-03-16T07:09:03;100886.00;;;0.70
4421;BMP180;11824;51.178;13.546;2023-03-16T07:11:31;100895.00;;;0.80
4421;BMP180;11824;51.178;13.546;2023-03-16T07:13:58;100889.00;;;0.80
4421;BMP180;11824;51.178;13.546;2023-03-16T07:16:26;100889.00;;;0.90
4421;BMP180;11824;51.178;13.546;2023-03-16T07:18:53;100892.00;;;1.00
4421;BMP180;11824;51.178;13.546;2023-03-16T07:21:21;100901.00;;;1.10
4421;BMP180;11824;51.178;13.546;2023-03-16T07:23:49;100907.00;;;1.10
4421;BMP180;11824;51.178;13.546;2023-03-16T07:26:17;100902.00;;;1.20
4421;BMP180;11824;51.178;13.546;2023-03-16T07:28:44;100896.00;;;1.30
4421;BMP180;11824;51.178;13.546;2023-03-16T07:31:11;100901.00;;;1.40
4421;BMP180;11824;51.178;13.546;2023-03-16T07:33:40;100907.00;;;1.50
4421;BMP180;11824;51.178;13.546;2023-03-16T07:36:08;100891.00;;;1.60
4421;BMP180;11824;51.178;13.546;2023-03-16T07:38:36;100885.00;;;1.60
4421;BMP180;11824;51.178;13.546;2023-03-16T07:41:04;100891.00;;;1.80
4421;BMP180;11824;51.178;13.546;2023-03-16T07:43:31;100889.00;;;1.80
4421;BMP180;11824;51.178;13.546;2023-03-16T07:45:59;100885.00;;;1.90
4421;BMP180;11824;51.178;13.546;2023-03-16T07:48:27;100893.00;;;2.00
4421;BMP180;11824;51.178;13.546;2023-03-16T07:50:54;100900.00;;;2.10
4421;BMP180;11824;51.178;13.546;2023-03-16T07:53:21;100911.00;;;2.20
4421;BMP180;11824;51.178;13.546;2023-03-16T07:55:49;100906.00;;;2.20
4421;BMP180;11824;51.178;13.546;2023-03-16T07:58:17;100911.00;;;2.30
4421;BMP180;11824;51.178;13.546;2023-03-16T08:00:44;100903.00;;;2.40
4421;BMP180;11824;51.178;13.546;2023-03-16T08:03:12;100913.00;;;2.50
4421;BMP180;11824;51.178;13.546;2023-03-16T08:05:39;100910.00;;;2.60
4421;BMP180;11824;51.178;13.546;2023-03-16T08:08:07;100912.00;;;2.60
4421;BMP180;11824;51.178;13.546;2023-03-16T08:10:35;100919.00;;;2.70
4421;BMP180;11824;51.178;13.546;2023-03-16T08:13:03;100913.00;;;2.80
4421;BMP180;11824;51.178;13.546;2023-03-16T08:15:31;100908.00;;;2.90
4421;BMP180;11824;51.178;13.546;2023-03-16T08:17:59;100917.00;;;3.00
4421;BMP180;11824;51.178;13.546;2023-03-16T08:20:28;100915.00;;;3.00
4421;BMP180;11824;51.178;13.546;2023-03-16T08:22:56;100913.00;;;3.10
4421;BMP180;11824;51.178;13.546;2023-03-16T08:25:23;100930.00;;;3.20
4421;BMP180;11824;51.178;13.546;2023-03-16T08:27:51;100919.00;;;3.30
4421;BMP180;11824;51.178;13.546;2023-03-16T08:30:19;100924.00;;;3.40
4421;BMP180;11824;51.178;13.546;2023-03-16T08:32:48;100917.00;;;3.50
4421;BMP180;11824;51.178;13.546;2023-03-16T08:35:16;100929.00;;;3.60
4421;BMP180;11824;51.178;13.546;2023-03-16T08:37:43;100931.00;;;3.60
4421;BMP180;11824;51.178;13.546;2023-03-16T08:40:12;100927.00;;;3.70
4421;BMP180;11824;51.178;13.546;2023-03-16T08:42:41;100938.00;;;3.80
4421;BMP180;11824;51.178;13.546;2023-03-16T08:45:11;100936.00;;;3.80
4421;BMP180;11824;51.178;13.546;2023-03-16T08:47:41;100938.00;;;3.90
4421;BMP180;11824;51.178;13.546;2023-03-16T08:50:10;100929.00;;;4.00
4421;BMP180;11824;51.178;13.546;2023-03-16T08:52:38;100936.00;;;4.10
4421;BMP180;11824;51.178;13.546;2023-03-16T08:55:07;100943.00;;;4.10
4421;BMP180;11824;51.178;13.546;2023-03-16T08:57:36;100940.00;;;4.20
4421;BMP180;11824;51.178;13.546;2023-03-16T09:00:06;100944.00;;;4.30
4421;BMP180;11824;51.178;13.546;2023-03-16T09:02:38;100933.00;;;4.40
4421;BMP180;11824;51.178;13.546;2023-03-16T09:05:08;100932.00;;;4.40
4421;BMP180;11824;51.178;13.546;2023-03-16T09:07:37;100937.00;;;4.50
4421;BMP180;11824;51.178;13.546;2023-03-16T09:10:05;100943.00;;;4.60
4421;BMP180;11824;51.178;13.546;2023-03-16T09:12:35;100943.00;;;4.60
4421;BMP180;11824;51.178;13.546;2023-03-16T09:15:03;100940.00;;;4.70
4421;BMP180;11824;51.178;13.546;2023-03-16T09:17:30;100945.00;;;4.80
4421;BMP180;11824;51.178;13.546;2023-03-16T09:19:59;100941.00;;;4.80
4421;BMP180;11824;51.178;13.546;2023-03-16T09:22:48;100947.00;;;4.90
4421;BMP180;11824;51.178;13.546;2023-03-16T09:25:15;100949.00;;;5.00
4421;BMP180;11824;51.178;13.546;2023-03-16T09:27:43;100940.00;;;5.00
4421;BMP180;11824;51.178;13.546;2023-03-16T09:30:11;100951.00;;;5.10
4421;BMP180;11824;51.178;13.546;2023-03-16T09:32:39;100947.00;;;5.10
4421;BMP180;11824;51.178;13.546;2023-03-16T09:35:07;100939.00;;;5.20
4421;BMP180;11824;51.178;13.546;2023-03-16T09:37:34;100945.00;;;5.30
4421;BMP180;11824;51.178;13.546;2023-03-16T09:40:21;100946.00;;;5.40
4421;BMP180;11824;51.178;13.546;2023-03-16T09:42:55;100939.00;;;5.40
4421;BMP180;11824;51.178;13.546;2023-03-16T09:45:34;100940.00;;;5.50
4421;BMP180;11824;51.178;13.546;2023-03-16T09:48:04;100932.00;;;5.60
4421;BMP180;11824;51.178;13.546;2023-03-16T09:50:37;100938.00;;;5.60
4421;BMP180;11824;51.178;13.546;2023-03-16T09:53:21;100937.00;;;5.70
4421;BMP180;11824;51.178;13.546;2023-03-16T09:55:54;100930.00;;;5.70
4421;BMP180;11824;51.178;13.546;2023-03-16T09:58:24;100928.00;;;5.80
4421;BMP180;11824;51.178;13.546;2023-03-16T10:00:59;100934.00;;;5.90
4421;BMP180;11824;51.178;13.546;2023-03-16T10:03:45;100933.00;;;5.90
4421;BMP180;11824;51.178;13.546;2023-03-16T10:06:15;100937.00;;;6.00
4421;BMP180;11824;51.178;13.546;2023-03-16T10:08:46;100933.00;;;6.00
4421;BMP180;11824;51.178;13.546;2023-03-16T10:11:25;100932.00;;;6.10
4421;BMP180;11824;51.178;13.546;2023-03-16T10:13:58;100934.00;;;6.20
4421;BMP180;11824;51.178;13.546;2023-03-16T10:16:33;100930.00;;;6.20
4421;BMP180;11824;51.178;13.546;2023-03-16T10:19:09;100934.00;;;6.30
4421;BMP180;11824;51.178;13.546;2023-03-16T10:21:40;100932.00;;;6.30
4421;BMP180;11824;51.178;13.546;2023-03-16T10:24:15;100929.00;;;6.40
4421;BMP180;11824;51.178;13.546;2023-03-16T10:26:52;100924.00;;;6.40
4421;BMP180;11824;51.178;13.546;2023-03-16T10:29:21;100925.00;;;6.50
4421;BMP180;11824;51.178;13.546;2023-03-16T10:31:48;100927.00;;;6.60
4421;BMP180;11824;51.178;13.546;2023-03-16T10:34:15;100928.00;;;6.60
4421;BMP180;11824;51.178;13.546;2023-03-16T10:36:44;100937.00;;;6.70
4421;BMP180;11824;51.178;13.546;2023-03-16T10:39:14;100926.00;;;6.70
4421;BMP180;11824;51.178;13.546;2023-03-16T10:41:46;100918.00;;;6.80
4421;BMP180;11824;51.178;13.546;2023-03-16T10:44:21;100924.00;;;6.80
4421;BMP180;11824;51.178;13.546;2023-03-16T10:46:57;100915.00;;;6.90
4421;BMP180;11824;51.178;13.546;2023-03-16T10:49:26;100924.00;;;6.90
4421;BMP180;11824;51.178;13.546;2023-03-16T10:51:55;100915.00;;;7.00
4421;BMP180;11824;51.178;13.546;2023-03-16T10:54:27;100926.00;;;7.10
4421;BMP180;11824;51.178;13.546;2023-03-16T10:56:57;100915.00;;;7.10
4421;BMP180;11824;51.178;13.546;2023-03-16T10:59:29;100916.00;;;7.20
4421;BMP180;11824;51.178;13.546;2023-03-16T11:01:59;100911.00;;;7.20
4421;BMP180;11824;51.178;13.546;2023-03-16T11:04:31;100909.00;;;7.30
4421;BMP180;11824;51.178;13.546;2023-03-16T11:07:18;100907.00;;;7.30
4421;BMP180;11824;51.178;13.546;2023-03-16T11:09:46;100896.00;;;7.40
4421;BMP180;11824;51.178;13.546;2023-03-16T11:12:22;100902.00;;;7.50
4421;BMP180;11824;51.178;13.546;2023-03-16T11:14:50;100891.00;;;7.50
4421;BMP180;11824;51.178;13.546;2023-03-16T11:17:23;100903.00;;;7.60
4421;BMP180;11824;51.178;13.546;2023-03-16T11:19:55;100887.00;;;7.60
4421;BMP180;11824;51.178;13.546;2023-03-16T11:22:26;100881.00;;;7.70
4421;BMP180;11824;51.178;13.546;2023-03-16T11:25:01;100883.00;;;7.70
4421;BMP180;11824;51.178;13.546;2023-03-16T11:27:36;100879.00;;;7.80
4421;BMP180;11824;51.178;13.546;2023-03-16T11:30:13;100884.00;;;7.90
4421;BMP180;11824;51.178;13.546;2023-03-16T11:32:48;100891.00;;;7.90
4421;BMP180;11824;51.178;13.546;2023-03-16T11:35:18;100881.00;;;7.90
4421;BMP180;11824;51.178;13.546;2023-03-16T11:37:55;100879.00;;;8.00
4421;BMP180;11824;51.178;13.546;2023-03-16T11:40:35;100879.00;;;8.10
4421;BMP180;11824;51.178;13.546;2023-03-16T11:43:24;100868.00;;;8.10
4421;BMP180;11824;51.178;13.546;2023-03-16T11:46:07;100866.00;;;8.20
4421;BMP180;11824;51.178;13.546;2023-03-16T11:48:40;100870.00;;;8.20
4421;BMP180;11824;51.178;13.546;2023-03-16T11:51:13;100865.00;;;8.30
4421;BMP180;11824;51.178;13.546;2023-03-16T11:53:49;100859.00;;;8.40
4421;BMP180;11824;51.178;13.546;2023-03-16T11:56:28;100857.00;;;8.40
4421;BMP180;11824;51.178;13.546;2023-03-16T11:59:13;100853.00;;;8.40
4421;BMP180;11824;51.178;13.546;2023-03-16T12:01:53;100858.00;;;8.50
4421;BMP180;11824;51.178;13.546;2023-03-16T12:04:43;100848.00;;;8.50
4421;BMP180;11824;51.178;13.546;2023-03-16T12:07:26;100853.00;;;8.60
4421;BMP180;11824;51.178;13.546;2023-03-16T12:10:10;100843.00;;;8.60
4421;BMP180;11824;51.178;13.546;2023-03-16T12:12:55;100838.00;;;8.60
4421;BMP180;11824;51.178;13.546;2023-03-16T12:15:36;100843.00;;;8.70
4421;BMP180;11824;51.178;13.546;2023-03-16T12:18:11;100836.00;;;8.70
4421;BMP180;11824;51.178;13.546;2023-03-16T12:20:49;100827.00;;;8.70
4421;BMP180;11824;51.178;13.546;2023-03-16T12:23:20;100820.00;;;8.80
4421;BMP180;11824;51.178;13.546;2023-03-16T12:25:53;100815.00;;;8.80
4421;BMP180;11824;51.178;13.546;2023-03-16T12:28:25;100820.00;;;8.90
4421;BMP180;11824;51.178;13.546;2023-03-16T12:31:06;100816.00;;;8.90
4421;BMP180;11824;51.178;13.546;2023-03-16T12:36:13;100820.00;;;9.00
4421;BMP180;11824;51.178;13.546;2023-03-16T12:38:49;100812.00;;;9.00
4421;BMP180;11824;51.178;13.546;2023-03-16T12:41:26;100806.00;;;9.00
4421;BMP180;11824;51.178;13.546;2023-03-16T12:44:07;100811.00;;;9.00
4421;BMP180;11824;51.178;13.546;2023-03-16T12:46:46;100817.00;;;9.10
4421;BMP180;11824;51.178;13.546;2023-03-16T12:49:15;100812.00;;;9.10
4421;BMP180;11824;51.178;13.546;2023-03-16T12:51:43;100816.00;;;9.20
4421;BMP180;11824;51.178;13.546;2023-03-16T12:54:21;100797.00;;;9.20
4421;BMP180;11824;51.178;13.546;2023-03-16T12:56:50;100802.00;;;9.20
4421;BMP180;11824;51.178;13.546;2023-03-16T12:59:20;100804.00;;;9.30
4421;BMP180;11824;51.178;13.546;2023-03-16T13:01:50;100794.00;;;9.30
4421;BMP180;11824;51.178;13.546;2023-03-16T13:04:20;100794.00;;;9.30
4421;BMP180;11824;51.178;13.546;2023-03-16T13:06:50;100795.00;;;9.30
4421;BMP180;11824;51.178;13.546;2023-03-16T13:09:28;100787.00;;;9.30
4421;BMP180;11824;51.178;13.546;2023-03-16T13:11:57;100781.00;;;9.30
4421;BMP180;11824;51.178;13.546;2023-03-16T13:14:36;100775.00;;;9.40
4421;BMP180;11824;51.178;13.546;2023-03-16T13:17:20;100770.00;;;9.40
4421;BMP180;11824;51.178;13.546;2023-03-16T13:19:59;100775.00;;;9.40
4421;BMP180;11824;51.178;13.546;2023-03-16T13:22:29;100777.00;;;9.40
4421;BMP180;11824;51.178;13.546;2023-03-16T13:25:10;100762.00;;;9.40
4421;BMP180;11824;51.178;13.546;2023-03-16T13:27:38;100764.00;;;9.40
4421;BMP180;11824;51.178;13.546;2023-03-16T13:30:17;100752.00;;;9.50
4421;BMP180;11824;51.178;13.546;2023-03-16T13:32:46;100755.00;;;9.50
4421;BMP180;11824;51.178;13.546;2023-03-16T13:35:16;100760.00;;;9.50
4421;BMP180;11824;51.178;13.546;2023-03-16T13:37:43;100758.00;;;9.50
4421;BMP180;11824;51.178;13.546;2023-03-16T13:40:18;100768.00;;;9.50
4421;BMP180;11824;51.178;13.546;2023-03-16T13:42:47;100764.00;;;9.50
4421;BMP180;11824;51.178;13.546;2023-03-16T13:45:21;100755.00;;;9.60
4421;BMP180;11824;51.178;13.546;2023-03-16T13:47:50;100762.00;;;9.60
4421;BMP180;11824;51.178;13.546;2023-03-16T13:50:19;100770.00;;;9.60
4421;BMP180;11824;51.178;13.546;2023-03-16T13:52:55;100751.00;;;9.60
4421;BMP180;11824;51.178;13.546;2023-03-16T13:55:29;100749.00;;;9.70
4421;BMP180;11824;51.178;13.546;2023-03-16T13:57:57;100747.00;;;9.70
4421;BMP180;11824;51.178;13.546;2023-03-16T14:00:33;100743.00;;;9.70
4421;BMP180;11824;51.178;13.546;2023-03-16T14:03:13;100744.00;;;9.70
4421;BMP180;11824;51.178;13.546;2023-03-16T14:05:42;100724.00;;;9.70
4421;BMP180;11824;51.178;13.546;2023-03-16T14:08:15;100737.00;;;9.70
4421;BMP180;11824;51.178;13.546;2023-03-16T14:10:44;100740.00;;;9.70
4421;BMP180;11824;51.178;13.546;2023-03-16T14:13:24;100729.00;;;9.70
4421;BMP180;11824;51.178;13.546;2023-03-16T14:15:53;100737.00;;;9.70
4421;BMP180;11824;51.178;13.546;2023-03-16T14:18:25;100730.00;;;9.70
4421;BMP180;11824;51.178;13.546;2023-03-16T14:20:54;100725.00;;;9.80
4421;BMP180;11824;51.178;13.546;2023-03-16T14:23:24;100720.00;;;9.80
4421;BMP180;11824;51.178;13.546;2023-03-16T14:26:09;100732.00;;;9.80
4421;BMP180;11824;51.178;13.546;2023-03-16T14:29:03;100729.00;;;9.80